Time;durP1;ratioP1;P1;durP2;ratioP2;P2;SDS_P1;SDS_P2;PMS_P1;PMS_P2;Temp;Humidity;BMP_temperature;BMP_pressure;BME280_temperature;BME280_humidity;BME280_pressure;Samples;Min_cycle;Max_cycle;Signal;HPM_P1;HPM_P2
2023/04/23 00:00:43;;;;;;;0.20;0.10;;;;;;;;;;4949345;28;20536;-87
2023/04/23 00:03:11;;;;;;;0.30;0.30;;;;;;;;;;4950990;28;20053;-86
2023/04/23 00:05:38;;;;;;;0.20;0.10;;;;;;;;;;4947687;28;20046;-86
2023/04/23 00:08:05;;;;;;;0.20;0.10;;;;;;;;;;4960709;28;20046;-86
2023/04/23 00:10:31;;;;;;;0.20;0.10;;;;;;;;;;4942241;28;20034;-86
2023/04/23 00:13:02;;;;;;;0.32;0.32;;;;;;;;;;4950680;28;20039;-88
2023/04/23 00:16:09;;;;;;;0.28;0.17;;;;;;;;;;4950380;28;20054;-89
2023/04/23 00:19:03;;;;;;;0.20;0.15;;;;;;;;;;4969673;28;20070;-87
2023/04/23 00:21:47;;;;;;;0.25;0.25;;;;;;;;;;4961957;28;20041;-87
2023/04/23 00:24:16;;;;;;;1.85;0.50;;;;;;;;;;4954729;28;20043;-88
2023/04/23 00:26:43;;;;;;;0.20;0.10;;;;;;;;;;4944830;28;20594;-87
2023/04/23 00:29:12;;;;;;;0.50;0.35;;;;;;;;;;4948355;28;20094;-88
2023/04/23 00:31:40;;;;;;;0.85;0.85;;;;;;;;;;4966812;28;20399;-88
2023/04/23 00:34:10;;;;;;;0.20;0.10;;;;;;;;;;4963326;28;20061;-88
2023/04/23 00:40:24;;;;;;;1.15;0.60;;;;;;;;;;4925700;29;20103;-90
2023/04/23 00:42:53;;;;;;;0.25;0.10;;;;;;;;;;4927865;28;20051;-87
2023/04/23 00:45:31;;;;;;;0.47;0.47;;;;;;;;;;4948887;28;20043;-90
2023/04/23 00:48:30;;;;;;;0.20;0.13;;;;;;;;;;4960772;28;20057;-89
2023/04/23 00:51:20;;;;;;;0.20;0.10;;;;;;;;;;4962297;28;20403;-89
2023/04/23 00:53:48;;;;;;;0.30;0.30;;;;;;;;;;4948913;28;20031;-89
2023/04/23 00:56:17;;;;;;;0.20;0.20;;;;;;;;;;4986949;23;20118;-88
2023/04/23 00:58:44;;;;;;;0.75;0.40;;;;;;;;;;4939433;28;20042;-86
2023/04/23 01:01:19;;;;;;;0.47;0.45;;;;;;;;;;4921770;28;20070;-87
2023/04/23 01:03:49;;;;;;;1.65;0.55;;;;;;;;;;4915398;28;20043;-87
2023/04/23 01:06:45;;;;;;;0.20;0.10;;;;;;;;;;4929730;29;20056;-88
2023/04/23 01:09:18;;;;;;;0.20;0.10;;;;;;;;;;4944368;28;20042;-86
2023/04/23 01:11:50;;;;;;;0.32;0.30;;;;;;;;;;4924900;29;20054;-88
2023/04/23 01:14:22;;;;;;;0.22;0.13;;;;;;;;;;4934251;29;20131;-87
2023/04/23 01:17:03;;;;;;;0.20;0.10;;;;;;;;;;4920056;29;20058;-88
2023/04/23 01:19:29;;;;;;;0.82;0.47;;;;;;;;;;4946254;28;20062;-88
2023/04/23 01:22:08;;;;;;;0.20;0.10;;;;;;;;;;4933455;29;20127;-89
2023/04/23 01:24:43;;;;;;;0.32;0.30;;;;;;;;;;4919444;29;20055;-88
2023/04/23 01:27:37;;;;;;;;;;;;;;;;;;;;;
2023/04/23 01:30:25;;;;;;;0.65;0.55;;;;;;;;;;4923290;29;20041;-89
2023/04/23 01:32:55;;;;;;;0.20;0.10;;;;;;;;;;4918585;29;20134;-88
2023/04/23 01:35:22;;;;;;;0.20;0.10;;;;;;;;;;4945502;23;20066;-87
2023/04/23 01:37:50;;;;;;;0.20;0.10;;;;;;;;;;4929785;28;20047;-88
2023/04/23 01:40:28;;;;;;;0.38;0.30;;;;;;;;;;4946784;28;20051;-89
2023/04/23 01:42:54;;;;;;;0.80;0.30;;;;;;;;;;4933464;29;20031;-87
2023/04/23 01:45:26;;;;;;;0.40;0.35;;;;;;;;;;4929280;29;20039;-87
2023/04/23 01:48:00;;;;;;;0.47;0.32;;;;;;;;;;4926504;29;20051;-90
2023/04/23 01:50:43;;;;;;;0.50;0.50;;;;;;;;;;4914707;29;20043;-88
2023/04/23 01:53:12;;;;;;;0.20;0.15;;;;;;;;;;4949340;28;20460;-86
2023/04/23 01:55:38;;;;;;;0.20;0.20;;;;;;;;;;4916756;29;20145;-88
2023/04/23 01:58:07;;;;;;;0.32;0.30;;;;;;;;;;4914364;29;20036;-88
2023/04/23 02:00:36;;;;;;;0.20;0.10;;;;;;;;;;4910103;29;20050;-88
2023/04/23 02:03:09;;;;;;;0.20;0.10;;;;;;;;;;4915720;29;21491;-88
2023/04/23 02:05:35;;;;;;;0.20;0.10;;;;;;;;;;4950446;23;20097;-85
2023/04/23 02:08:02;;;;;;;0.30;0.30;;;;;;;;;;4921272;28;20047;-82
2023/04/23 02:10:29;;;;;;;0.20;0.10;;;;;;;;;;4918581;28;20126;-84
2023/04/23 02:12:56;;;;;;;0.20;0.15;;;;;;;;;;4928523;28;20050;-82
2023/04/23 02:15:22;;;;;;;0.20;0.20;;;;;;;;;;4939843;28;20049;-84
2023/04/23 02:17:50;;;;;;;0.20;0.10;;;;;;;;;;4903959;28;20542;-83
2023/04/23 02:20:17;;;;;;;0.95;0.90;;;;;;;;;;4901499;28;20178;-84
2023/04/23 02:22:43;;;;;;;0.20;0.00;;;;;;;;;;4923109;28;20036;-81
2023/04/23 02:25:10;;;;;;;0.25;0.15;;;;;;;;;;4928776;28;20047;-83
2023/04/23 02:27:36;;;;;;;0.20;0.10;;;;;;;;;;4930886;28;20114;-80
2023/04/23 02:30:02;;;;;;;0.57;0.25;;;;;;;;;;4921432;28;20051;-84
2023/04/23 02:32:28;;;;;;;1.17;0.17;;;;;;;;;;4925255;28;20265;-84
2023/04/23 02:34:55;;;;;;;0.25;0.22;;;;;;;;;;4924328;28;20178;-83
2023/04/23 02:37:21;;;;;;;0.45;0.22;;;;;;;;;;4927703;28;20050;-84
2023/04/23 02:39:47;;;;;;;0.28;0.28;;;;;;;;;;4926087;29;20040;-84
2023/04/23 02:42:13;;;;;;;0.20;0.17;;;;;;;;;;4926070;28;20547;-85
2023/04/23 02:44:39;;;;;;;3.70;2.83;;;;;;;;;;4913352;28;20093;-83
2023/04/23 02:47:05;;;;;;;0.40;0.40;;;;;;;;;;4914308;28;20067;-81
2023/04/23 02:49:31;;;;;;;0.30;0.30;;;;;;;;;;4922310;28;20073;-85
2023/04/23 02:51:57;;;;;;;0.20;0.10;;;;;;;;;;4918278;28;20043;-85
2023/04/23 02:54:23;;;;;;;0.20;0.10;;;;;;;;;;4926644;28;20037;-84
2023/04/23 02:56:49;;;;;;;0.28;0.22;;;;;;;;;;4908562;29;20049;-84
2023/04/23 02:59:15;;;;;;;0.95;0.40;;;;;;;;;;4914348;28;20031;-84
2023/04/23 03:01:41;;;;;;;1.50;0.55;;;;;;;;;;4918788;28;20043;-80
2023/04/23 03:04:07;;;;;;;0.30;0.30;;;;;;;;;;4921882;28;20050;-83
2023/04/23 03:06:34;;;;;;;0.20;0.10;;;;;;;;;;4909583;28;20047;-83
2023/04/23 03:09:00;;;;;;;0.20;0.20;;;;;;;;;;4920750;28;20566;-81
2023/04/23 03:11:26;;;;;;;0.20;0.10;;;;;;;;;;4915690;28;20039;-82
2023/04/23 03:13:52;;;;;;;0.25;0.25;;;;;;;;;;4920018;28;20082;-84
2023/04/23 03:16:18;;;;;;;0.70;0.40;;;;;;;;;;4927099;28;20047;-85
2023/04/23 03:18:44;;;;;;;0.43;0.15;;;;;;;;;;4930346;28;20496;-83
2023/04/23 03:21:11;;;;;;;0.20;0.10;;;;;;;;;;4924938;28;20043;-82
2023/04/23 03:23:37;;;;;;;0.20;0.15;;;;;;;;;;4914390;28;20050;-86
2023/04/23 03:26:03;;;;;;;0.20;0.10;;;;;;;;;;4926070;28;20126;-80
2023/04/23 03:28:30;;;;;;;0.75;0.50;;;;;;;;;;4913221;28;20145;-81
2023/04/23 03:30:56;;;;;;;1.42;0.85;;;;;;;;;;4910522;29;20038;-84
2023/04/23 03:33:22;;;;;;;0.45;0.45;;;;;;;;;;4915074;28;20039;-84
2023/04/23 03:35:48;;;;;;;0.20;0.10;;;;;;;;;;4923789;28;20105;-83
2023/04/23 03:38:14;;;;;;;0.75;0.75;;;;;;;;;;4915957;28;20129;-85
2023/04/23 03:40:40;;;;;;;1.10;0.85;;;;;;;;;;4928409;28;20456;-81
2023/04/23 03:43:06;;;;;;;0.20;0.17;;;;;;;;;;4920127;28;20039;-84
2023/04/23 03:45:32;;;;;;;1.58;0.43;;;;;;;;;;4905729;28;20146;-83
2023/04/23 03:47:58;;;;;;;0.93;0.82;;;;;;;;;;4905174;28;20070;-84
2023/04/23 03:50:24;;;;;;;0.45;0.45;;;;;;;;;;4915286;28;20066;-85
2023/04/23 03:52:50;;;;;;;0.38;0.38;;;;;;;;;;4898772;28;20607;-80
2023/04/23 03:55:16;;;;;;;0.32;0.28;;;;;;;;;;4908145;29;20135;-84
2023/04/23 03:57:42;;;;;;;1.08;0.45;;;;;;;;;;4920777;28;20043;-84
2023/04/23 04:00:11;;;;;;;0.93;0.65;;;;;;;;;;4924552;28;20046;-81
2023/04/23 04:02:38;;;;;;;0.20;0.10;;;;;;;;;;4903396;28;20457;-81
2023/04/23 04:05:05;;;;;;;1.55;0.88;;;;;;;;;;4919157;28;20098;-84
2023/04/23 04:07:32;;;;;;;1.10;0.95;;;;;;;;;;4909334;28;20570;-83
2023/04/23 04:09:58;;;;;;;0.30;0.30;;;;;;;;;;4915353;28;20050;-84
2023/04/23 04:12:24;;;;;;;0.40;0.20;;;;;;;;;;4922636;28;20158;-84
2023/04/23 04:14:50;;;;;;;0.50;0.40;;;;;;;;;;4900724;28;20047;-84
2023/04/23 04:17:16;;;;;;;0.20;0.10;;;;;;;;;;4904148;28;20090;-84
2023/04/23 04:19:42;;;;;;;0.20;0.20;;;;;;;;;;4908560;28;20047;-82
2023/04/23 04:22:09;;;;;;;0.52;0.50;;;;;;;;;;4920644;28;20081;-82
2023/04/23 04:24:35;;;;;;;0.20;0.20;;;;;;;;;;4934540;28;20047;-84
2023/04/23 04:27:01;;;;;;;1.20;1.10;;;;;;;;;;4914461;28;20050;-84
2023/04/23 04:29:27;;;;;;;0.77;0.50;;;;;;;;;;4922441;28;20424;-83
2023/04/23 04:31:55;;;;;;;0.38;0.35;;;;;;;;;;4925924;28;20066;-83
2023/04/23 04:34:21;;;;;;;0.52;0.20;;;;;;;;;;4917641;28;20154;-84
2023/04/23 04:36:47;;;;;;;0.57;0.38;;;;;;;;;;4924050;28;20931;-84
2023/04/23 04:39:13;;;;;;;0.40;0.40;;;;;;;;;;4921248;28;20179;-83
2023/04/23 04:41:40;;;;;;;0.55;0.55;;;;;;;;;;4918407;28;20086;-80
2023/04/23 04:44:07;;;;;;;1.08;1.08;;;;;;;;;;4924164;28;20464;-84
2023/04/23 04:46:39;;;;;;;1.55;0.57;;;;;;;;;;4909893;28;20058;-81
2023/04/23 04:49:07;;;;;;;1.98;0.77;;;;;;;;;;4925760;28;20239;-85
2023/04/23 04:51:33;;;;;;;0.47;0.47;;;;;;;;;;4911992;28;20039;-84
2023/04/23 04:53:59;;;;;;;1.48;1.20;;;;;;;;;;4905210;28;20049;-84
2023/04/23 04:56:25;;;;;;;0.20;0.20;;;;;;;;;;4917434;28;20078;-84
2023/04/23 04:58:51;;;;;;;0.20;0.10;;;;;;;;;;4922920;28;20067;-84
2023/04/23 05:01:20;;;;;;;0.45;0.43;;;;;;;;;;4922494;28;20039;-81
2023/04/23 05:03:46;;;;;;;0.20;0.20;;;;;;;;;;4927657;28;20699;-82
2023/04/23 05:06:12;;;;;;;1.23;0.50;;;;;;;;;;4920308;28;20047;-83
2023/04/23 05:08:38;;;;;;;0.68;0.32;;;;;;;;;;4925333;28;20083;-82
2023/04/23 05:11:04;;;;;;;0.60;0.60;;;;;;;;;;4924007;28;20043;-83
2023/04/23 05:13:31;;;;;;;1.50;0.85;;;;;;;;;;4916707;28;20043;-83
2023/04/23 05:15:57;;;;;;;0.68;0.68;;;;;;;;;;4907000;28;20232;-82
2023/04/23 05:18:23;;;;;;;0.20;0.15;;;;;;;;;;4923330;28;20050;-82
2023/04/23 05:20:49;;;;;;;0.30;0.30;;;;;;;;;;4918101;28;20054;-80
2023/04/23 05:23:15;;;;;;;0.40;0.35;;;;;;;;;;4905164;28;20054;-82
2023/04/23 05:25:41;;;;;;;0.20;0.20;;;;;;;;;;4916621;28;20047;-83
2023/04/23 05:28:07;;;;;;;0.32;0.32;;;;;;;;;;4914517;28;20046;-84
2023/04/23 05:30:33;;;;;;;0.73;0.30;;;;;;;;;;4915899;28;20039;-81
2023/04/23 05:32:59;;;;;;;0.70;0.50;;;;;;;;;;4913623;28;20074;-82
2023/04/23 05:35:26;;;;;;;0.50;0.30;;;;;;;;;;4916128;28;20504;-82
2023/04/23 05:37:52;;;;;;;0.25;0.17;;;;;;;;;;4899719;28;20051;-85
2023/04/23 05:40:18;;;;;;;0.73;0.70;;;;;;;;;;4915456;28;20043;-84
2023/04/23 05:42:44;;;;;;;1.20;0.50;;;;;;;;;;4905095;28;20069;-86
2023/04/23 05:45:10;;;;;;;0.40;0.32;;;;;;;;;;4920650;28;20075;-81
2023/04/23 05:47:36;;;;;;;0.40;0.40;;;;;;;;;;4900414;28;20094;-84
2023/04/23 05:50:03;;;;;;;0.30;0.30;;;;;;;;;;4903566;28;20035;-81
2023/04/23 05:52:34;;;;;;;1.65;0.90;;;;;;;;;;4921064;28;20043;-82
2023/04/23 05:55:00;;;;;;;0.20;0.10;;;;;;;;;;4909676;28;20043;-82
2023/04/23 05:57:26;;;;;;;0.38;0.35;;;;;;;;;;4901485;28;20099;-83
2023/04/23 05:59:52;;;;;;;0.30;0.30;;;;;;;;;;4926740;28;20231;-82
2023/04/23 06:02:18;;;;;;;0.47;0.47;;;;;;;;;;4918645;28;20040;-82
2023/04/23 06:04:44;;;;;;;1.75;0.75;;;;;;;;;;4926037;28;20055;-81
2023/04/23 06:07:11;;;;;;;0.52;0.52;;;;;;;;;;4918583;28;20704;-82
2023/04/23 06:09:37;;;;;;;0.25;0.15;;;;;;;;;;4928519;29;20050;-83
2023/04/23 06:12:03;;;;;;;0.20;0.10;;;;;;;;;;4928162;28;20751;-83
2023/04/23 06:14:29;;;;;;;0.20;0.10;;;;;;;;;;4922261;28;20039;-83
2023/04/23 06:16:55;;;;;;;0.30;0.20;;;;;;;;;;4927573;28;20043;-80
2023/04/23 06:19:24;;;;;;;0.35;0.35;;;;;;;;;;4908163;28;20102;-83
2023/04/23 06:21:50;;;;;;;0.20;0.20;;;;;;;;;;4909327;28;20129;-79
2023/04/23 06:24:16;;;;;;;0.30;0.20;;;;;;;;;;4925397;28;20090;-83
2023/04/23 06:26:42;;;;;;;0.32;0.25;;;;;;;;;;4920859;28;20602;-82
2023/04/23 06:29:08;;;;;;;0.75;0.63;;;;;;;;;;4920011;28;20031;-85
2023/04/23 06:31:34;;;;;;;1.75;0.38;;;;;;;;;;4920803;28;20053;-83
2023/04/23 06:34:00;;;;;;;0.55;0.55;;;;;;;;;;4923257;28;20058;-83
2023/04/23 06:36:26;;;;;;;0.75;0.32;;;;;;;;;;4927077;28;20043;-84
2023/04/23 06:38:52;;;;;;;0.20;0.17;;;;;;;;;;4927174;28;20051;-84
2023/04/23 06:41:19;;;;;;;0.20;0.10;;;;;;;;;;4912939;28;20051;-80
2023/04/23 06:43:47;;;;;;;0.65;0.52;;;;;;;;;;4923964;28;20047;-85
2023/04/23 06:46:13;;;;;;;0.68;0.68;;;;;;;;;;4909696;28;20047;-83
2023/04/23 06:48:40;;;;;;;0.20;0.10;;;;;;;;;;4927321;29;20493;-83
2023/04/23 06:51:06;;;;;;;0.60;0.57;;;;;;;;;;4928829;28;21132;-84
2023/04/23 06:53:33;;;;;;;0.20;0.20;;;;;;;;;;4913196;28;20050;-85
2023/04/23 06:55:59;;;;;;;1.10;0.57;;;;;;;;;;4924650;28;20121;-84
2023/04/23 06:58:30;;;;;;;0.20;0.10;;;;;;;;;;4914238;28;20765;-86
2023/04/23 07:01:10;;;;;;;0.20;0.20;;;;;;;;;;4926768;28;20046;-85
2023/04/23 07:03:39;;;;;;;0.20;0.10;;;;;;;;;;4930376;28;20058;-85
2023/04/23 07:06:10;;;;;;;0.60;0.20;;;;;;;;;;4925612;28;20062;-84
2023/04/23 07:08:38;;;;;;;0.20;0.10;;;;;;;;;;4910125;28;20046;-84
2023/04/23 07:11:06;;;;;;;0.85;0.30;;;;;;;;;;4939636;28;20050;-85
2023/04/23 07:13:41;;;;;;;0.30;0.30;;;;;;;;;;4928316;28;20055;-85
2023/04/23 07:16:14;;;;;;;0.30;0.30;;;;;;;;;;4929025;28;20039;-86
2023/04/23 07:18:48;;;;;;;0.45;0.45;;;;;;;;;;4923118;28;20043;-87
2023/04/23 07:21:14;;;;;;;0.45;0.43;;;;;;;;;;4920147;28;20051;-84
2023/04/23 07:23:40;;;;;;;0.20;0.20;;;;;;;;;;4924854;28;20043;-84
2023/04/23 07:26:06;;;;;;;0.30;0.20;;;;;;;;;;4925647;28;20097;-88
2023/04/23 07:28:41;;;;;;;1.48;0.60;;;;;;;;;;4943576;28;20031;-84
2023/04/23 07:31:07;;;;;;;0.45;0.45;;;;;;;;;;4908715;28;20050;-84
2023/04/23 07:33:40;;;;;;;0.20;0.20;;;;;;;;;;4914298;28;20039;-86
2023/04/23 07:36:11;;;;;;;0.20;0.10;;;;;;;;;;4926127;23;20051;-86
2023/04/23 07:39:04;;;;;;;3.13;0.70;;;;;;;;;;4956530;28;20066;-87
2023/04/23 07:41:31;;;;;;;0.63;0.63;;;;;;;;;;4948218;28;20042;-85
2023/04/23 07:43:57;;;;;;;0.73;0.73;;;;;;;;;;4939038;28;20591;-85
2023/04/23 07:46:23;;;;;;;0.50;0.50;;;;;;;;;;4949768;28;20056;-84
2023/04/23 07:48:50;;;;;;;0.43;0.43;;;;;;;;;;4937101;28;20508;-88
2023/04/23 07:51:26;;;;;;;0.20;0.20;;;;;;;;;;4939756;28;20063;-84
2023/04/23 07:53:55;;;;;;;0.20;0.08;;;;;;;;;;4927643;29;20119;-85
2023/04/23 07:59:14;;;;;;;0.30;0.30;;;;;;;;;;4899728;29;20035;-85
2023/04/23 08:01:43;;;;;;;0.20;0.20;;;;;;;;;;4915915;29;20040;-86
2023/04/23 08:04:11;;;;;;;0.20;0.10;;;;;;;;;;4956104;28;20046;-84
2023/04/23 08:07:21;;;;;;;0.20;0.20;;;;;;;;;;4968235;23;20108;-87
2023/04/23 08:10:03;;;;;;;;;;;;;;;;;;;;;
2023/04/23 08:13:08;;;;;;;0.20;0.10;;;;;;;;;;4949850;28;20492;-89
2023/04/23 08:16:08;;;;;;;0.20;0.20;;;;;;;;;;4940105;28;20042;-86
2023/04/23 08:19:12;;;;;;;0.20;0.20;;;;;;;;;;4946556;28;20777;-88
2023/04/23 08:21:43;;;;;;;0.20;0.10;;;;;;;;;;4867658;29;20040;-88
2023/04/23 08:31:18;;;;;;;0.32;0.30;;;;;;;;;;4898537;29;20093;-87
2023/04/23 08:34:27;;;;;;;0.20;0.10;;;;;;;;;;4958407;28;20104;-91
2023/04/23 08:43:01;;;;;;;0.30;0.30;;;;;;;;;;4944557;28;20050;-87
2023/04/23 08:45:27;;;;;;;0.30;0.30;;;;;;;;;;4957560;28;22318;-88
2023/04/23 08:48:22;;;;;;;1.08;0.30;;;;;;;;;;4940690;28;20101;-88
2023/04/23 08:50:50;;;;;;;1.20;0.45;;;;;;;;;;4947601;28;20477;-89
2023/04/23 08:54:03;;;;;;;0.20;0.10;;;;;;;;;;4955943;28;20070;-88
2023/04/23 08:56:32;;;;;;;0.30;0.20;;;;;;;;;;4881121;29;20504;-91
2023/04/23 08:59:13;;;;;;;0.67;0.67;;;;;;;;;;4866587;29;20048;-89
2023/04/23 09:01:46;;;;;;;0.22;0.22;;;;;;;;;;4906701;28;20744;-87
2023/04/23 09:04:24;;;;;;;0.22;0.22;;;;;;;;;;4950698;28;20050;-90
2023/04/23 09:07:12;;;;;;;0.35;0.22;;;;;;;;;;4957145;28;21639;-87
2023/04/23 09:10:07;;;;;;;0.20;0.10;;;;;;;;;;4955092;28;20473;-92
2023/04/23 09:12:45;;;;;;;0.20;0.20;;;;;;;;;;4930833;28;20061;-90
2023/04/23 09:15:21;;;;;;;0.20;0.10;;;;;;;;;;4942206;28;20039;-88
2023/04/23 09:18:01;;;;;;;0.20;0.10;;;;;;;;;;4953186;28;20105;-89
2023/04/23 09:20:27;;;;;;;0.50;0.40;;;;;;;;;;4936230;28;20077;-86
2023/04/23 09:23:01;;;;;;;2.17;0.30;;;;;;;;;;4947663;28;20097;-88
2023/04/23 09:28:06;;;;;;;0.20;0.10;;;;;;;;;;4973413;28;20042;-87
2023/04/23 09:30:51;;;;;;;0.22;0.22;;;;;;;;;;4961318;28;20042;-86
2023/04/23 09:33:20;;;;;;;0.20;0.20;;;;;;;;;;4931573;28;20050;-88
2023/04/23 09:35:48;;;;;;;0.25;0.25;;;;;;;;;;4955971;28;20086;-86
2023/04/23 09:38:16;;;;;;;0.20;0.10;;;;;;;;;;4938420;28;20586;-88
2023/04/23 09:40:45;;;;;;;0.50;0.50;;;;;;;;;;4921321;28;21023;-90
2023/04/23 09:43:22;;;;;;;0.20;0.10;;;;;;;;;;4949658;28;20049;-85
2023/04/23 09:45:51;;;;;;;0.20;0.13;;;;;;;;;;4969622;28;20134;-84
2023/04/23 09:48:20;;;;;;;0.22;0.17;;;;;;;;;;4971450;28;20047;-85
2023/04/23 09:50:49;;;;;;;0.40;0.40;;;;;;;;;;4955160;28;20051;-86
2023/04/23 09:56:20;;;;;;;0.20;0.10;;;;;;;;;;4928335;28;20055;-87
2023/04/23 09:58:51;;;;;;;0.20;0.10;;;;;;;;;;4935834;28;20397;-90
2023/04/23 10:01:29;;;;;;;0.20;0.10;;;;;;;;;;4962341;28;20074;-86
2023/04/23 10:04:04;;;;;;;0.20;0.20;;;;;;;;;;4945369;28;20043;-89
2023/04/23 10:09:44;;;;;;;0.30;0.22;;;;;;;;;;4934633;28;20139;-87
2023/04/23 10:12:11;;;;;;;0.20;0.20;;;;;;;;;;4952724;28;20054;-85
2023/04/23 10:14:43;;;;;;;0.20;0.20;;;;;;;;;;4959681;28;20929;-84
2023/04/23 10:20:53;;;;;;;0.20;0.10;;;;;;;;;;4937018;28;20034;-85
2023/04/23 10:27:15;;;;;;;0.20;0.10;;;;;;;;;;4928798;28;20055;-88
2023/04/23 10:30:04;;;;;;;0.20;0.10;;;;;;;;;;4945432;28;20098;-87
2023/04/23 10:32:33;;;;;;;0.20;0.20;;;;;;;;;;4943964;28;20051;-86
2023/04/23 10:35:01;;;;;;;0.20;0.10;;;;;;;;;;4952122;28;20050;-91
2023/04/23 10:40:54;;;;;;;0.45;0.45;;;;;;;;;;4900718;29;20047;-89
2023/04/23 10:43:41;;;;;;;0.50;0.38;;;;;;;;;;4885404;28;20101;-88
2023/04/23 10:46:26;;;;;;;3.40;0.40;;;;;;;;;;4949474;28;20598;-87
2023/04/23 10:49:13;;;;;;;0.40;0.22;;;;;;;;;;4954693;28;20035;-87
2023/04/23 10:52:04;;;;;;;0.20;0.10;;;;;;;;;;4941251;28;20053;-88
2023/04/23 10:54:49;;;;;;;0.32;0.32;;;;;;;;;;4959906;28;20062;-87
2023/04/23 10:57:21;;;;;;;0.20;0.10;;;;;;;;;;4938646;28;20035;-89
2023/04/23 11:00:11;;;;;;;0.20;0.10;;;;;;;;;;4956391;28;20122;-88
2023/04/23 11:02:46;;;;;;;0.43;0.38;;;;;;;;;;4925745;28;20062;-87
2023/04/23 11:08:52;;;;;;;0.20;0.10;;;;;;;;;;4882634;29;20062;-87
2023/04/23 11:11:53;;;;;;;0.20;0.10;;;;;;;;;;4922012;29;20099;-89
2023/04/23 11:18:09;;;;;;;0.20;0.10;;;;;;;;;;4910880;29;20090;-85
2023/04/23 11:20:40;;;;;;;0.20;0.10;;;;;;;;;;4940656;28;20049;-88
2023/04/23 11:23:37;;;;;;;0.20;0.20;;;;;;;;;;4961678;28;20404;-87
2023/04/23 11:26:25;;;;;;;0.20;0.10;;;;;;;;;;4979766;28;20078;-87
2023/04/23 11:29:15;;;;;;;0.20;0.20;;;;;;;;;;4950384;28;20042;-87
2023/04/23 11:31:56;;;;;;;0.20;0.10;;;;;;;;;;4953023;28;21311;-88
2023/04/23 11:34:48;;;;;;;0.20;0.10;;;;;;;;;;4951674;28;20055;-90
2023/04/23 11:37:24;;;;;;;0.52;0.32;;;;;;;;;;4934987;28;20053;-86
2023/04/23 11:40:09;;;;;;;0.20;0.20;;;;;;;;;;4940461;28;20381;-88
2023/04/23 11:43:07;;;;;;;0.20;0.10;;;;;;;;;;4945208;28;20042;-86
2023/04/23 11:46:05;;;;;;;0.20;0.10;;;;;;;;;;4956402;28;20050;-88
2023/04/23 11:48:31;;;;;;;0.20;0.10;;;;;;;;;;4939484;28;20043;-86
2023/04/23 11:51:00;;;;;;;0.20;0.10;;;;;;;;;;4962817;28;20046;-87
2023/04/23 11:53:35;;;;;;;0.20;0.10;;;;;;;;;;4948359;28;20524;-87
2023/04/23 11:56:06;;;;;;;0.30;0.20;;;;;;;;;;4948921;28;20047;-87
2023/04/23 11:58:46;;;;;;;;;;;;;;;;;;;;;
2023/04/23 12:01:21;;;;;;;0.22;0.22;;;;;;;;;;4917962;28;20054;-88
2023/04/23 12:03:48;;;;;;;0.20;0.10;;;;;;;;;;4929947;28;20051;-87
2023/04/23 12:06:23;;;;;;;0.20;0.10;;;;;;;;;;4904754;28;20055;-86
2023/04/23 12:09:11;;;;;;;0.30;0.10;;;;;;;;;;4883998;28;20817;-88
2023/04/23 12:12:01;;;;;;;0.20;0.10;;;;;;;;;;4938800;28;20411;-85
2023/04/23 12:14:33;;;;;;;0.20;0.10;;;;;;;;;;4933091;28;20445;-90
2023/04/23 12:17:11;;;;;;;0.20;0.10;;;;;;;;;;4949154;28;20475;-86
2023/04/23 12:19:43;;;;;;;0.20;0.10;;;;;;;;;;4931469;28;20042;-87
2023/04/23 12:22:26;;;;;;;0.20;0.20;;;;;;;;;;4948449;28;20038;-88
2023/04/23 12:25:08;;;;;;;0.20;0.10;;;;;;;;;;4964970;28;20058;-86
2023/04/23 12:27:55;;;;;;;0.20;0.10;;;;;;;;;;4938308;28;20098;-87
2023/04/23 12:30:26;;;;;;;0.20;0.10;;;;;;;;;;4938973;28;20038;-87
2023/04/23 12:36:30;;;;;;;0.20;0.10;;;;;;;;;;4902721;29;20058;-85
2023/04/23 12:39:15;;;;;;;0.20;0.10;;;;;;;;;;4933776;28;20089;-87
2023/04/23 12:41:41;;;;;;;0.20;0.20;;;;;;;;;;4956282;28;20043;-87
2023/04/23 12:44:10;;;;;;;0.20;0.10;;;;;;;;;;4961737;28;21676;-87
2023/04/23 12:47:06;;;;;;;0.20;0.10;;;;;;;;;;4944378;28;20089;-86
2023/04/23 12:49:38;;;;;;;0.50;0.32;;;;;;;;;;4930220;28;20062;-88
2023/04/23 12:52:27;;;;;;;0.20;0.10;;;;;;;;;;4930569;28;20045;-86
2023/04/23 12:54:57;;;;;;;0.20;0.10;;;;;;;;;;4954040;28;20479;-86
2023/04/23 12:57:24;;;;;;;0.20;0.10;;;;;;;;;;4953284;28;20091;-86
2023/04/23 13:00:11;;;;;;;0.20;0.10;;;;;;;;;;4928319;28;20062;-87
2023/04/23 13:02:42;;;;;;;0.20;0.10;;;;;;;;;;4954056;28;20042;-87
2023/04/23 13:05:27;;;;;;;0.20;0.10;;;;;;;;;;4961669;28;20121;-86
2023/04/23 13:08:09;;;;;;;0.20;0.10;;;;;;;;;;4957126;28;20054;-87
2023/04/23 13:11:12;;;;;;;0.20;0.10;;;;;;;;;;4972047;28;20062;-86
2023/04/23 13:13:44;;;;;;;0.20;0.10;;;;;;;;;;4947408;28;20051;-91
2023/04/23 13:16:15;;;;;;;0.20;0.10;;;;;;;;;;4957797;23;20216;-86
2023/04/23 13:18:47;;;;;;;0.20;0.10;;;;;;;;;;4963320;28;20043;-84
2023/04/23 13:21:16;;;;;;;0.20;0.10;;;;;;;;;;4943660;28;20168;-86
2023/04/23 13:23:48;;;;;;;0.20;0.10;;;;;;;;;;4957119;28;20045;-86
2023/04/23 13:26:32;;;;;;;0.20;0.10;;;;;;;;;;4949229;28;20420;-87
2023/04/23 13:29:09;;;;;;;0.20;0.10;;;;;;;;;;4961555;28;20053;-86
2023/04/23 13:32:15;;;;;;;0.30;0.22;;;;;;;;;;4939843;28;20050;-90
2023/04/23 13:34:47;;;;;;;0.50;0.30;;;;;;;;;;4948632;28;20368;-88
2023/04/23 13:37:14;;;;;;;;;;;;;;;;;;4947016;28;20034;-89
2023/04/23 13:39:49;;;;;;;0.20;0.10;;;;;;;;;;4946439;28;19921;-86
2023/04/23 13:42:28;;;;;;;0.20;0.10;;;;;;;;;;4956810;28;20113;-89
2023/04/23 13:44:57;;;;;;;0.20;0.10;;;;;;;;;;4946165;28;20049;-90
2023/04/23 13:47:44;;;;;;;0.20;0.10;;;;;;;;;;4951761;28;20133;-85
2023/04/23 13:50:24;;;;;;;0.20;0.10;;;;;;;;;;4964460;28;20081;-88
2023/04/23 13:53:10;;;;;;;0.20;0.10;;;;;;;;;;4959886;28;20105;-87
2023/04/23 13:55:43;;;;;;;0.20;0.10;;;;;;;;;;4946075;28;20104;-87
2023/04/23 13:58:09;;;;;;;1.85;1.20;;;;;;;;;;4960495;28;20053;-88
2023/04/23 14:00:41;;;;;;;0.20;0.10;;;;;;;;;;4955618;28;20132;-91
2023/04/23 14:03:19;;;;;;;0.20;0.10;;;;;;;;;;4935548;28;20061;-87
2023/04/23 14:05:51;;;;;;;0.20;0.10;;;;;;;;;;4979103;23;20074;-89
2023/04/23 14:08:26;;;;;;;0.20;0.10;;;;;;;;;;4924404;28;20071;-85
2023/04/23 14:10:55;;;;;;;0.20;0.05;;;;;;;;;;4946788;28;20050;-85
2023/04/23 14:13:24;;;;;;;0.20;0.10;;;;;;;;;;4929908;28;20109;-85
2023/04/23 14:15:51;;;;;;;0.20;0.00;;;;;;;;;;4958965;28;20042;-85
2023/04/23 14:18:26;;;;;;;0.20;0.10;;;;;;;;;;4942401;28;20558;-86
2023/04/23 14:20:57;;;;;;;0.20;0.10;;;;;;;;;;4939506;28;20357;-86
2023/04/23 14:23:26;;;;;;;0.20;0.03;;;;;;;;;;4925633;28;20043;-84
2023/04/23 14:25:57;;;;;;;0.20;0.10;;;;;;;;;;4947483;28;20042;-84
2023/04/23 14:28:30;;;;;;;0.20;0.10;;;;;;;;;;4953529;28;20559;-84
2023/04/23 14:30:57;;;;;;;0.20;0.10;;;;;;;;;;4949856;28;20709;-85
2023/04/23 14:33:23;;;;;;;0.20;0.10;;;;;;;;;;4927516;28;20074;-86
2023/04/23 14:35:59;;;;;;;0.20;0.10;;;;;;;;;;4964995;28;20034;-84
2023/04/23 14:38:37;;;;;;;0.20;0.10;;;;;;;;;;4954023;28;20035;-85
2023/04/23 14:41:06;;;;;;;0.20;0.10;;;;;;;;;;4931963;28;20050;-85
2023/04/23 14:43:36;;;;;;;0.20;0.10;;;;;;;;;;4943896;28;20058;-85
2023/04/23 14:46:11;;;;;;;0.20;0.10;;;;;;;;;;4927550;28;20372;-87
2023/04/23 14:48:46;;;;;;;0.20;0.10;;;;;;;;;;4937531;28;20039;-85
2023/04/23 14:51:15;;;;;;;0.20;0.20;;;;;;;;;;4945624;28;20050;-85
2023/04/23 14:53:44;;;;;;;0.20;0.10;;;;;;;;;;4929509;28;20039;-86
2023/04/23 14:56:13;;;;;;;0.52;0.52;;;;;;;;;;4941144;28;20683;-85
2023/04/23 14:58:40;;;;;;;0.20;0.10;;;;;;;;;;4928678;28;20120;-85
2023/04/23 15:01:18;;;;;;;0.20;0.10;;;;;;;;;;4942013;28;20552;-86
2023/04/23 15:03:44;;;;;;;0.20;0.10;;;;;;;;;;4943372;28;20035;-86
2023/04/23 15:06:21;;;;;;;3.13;0.47;;;;;;;;;;4945085;28;20051;-86
2023/04/23 15:09:10;;;;;;;0.20;0.10;;;;;;;;;;4925124;28;20093;-87
2023/04/23 15:11:41;;;;;;;0.20;0.10;;;;;;;;;;4943373;28;22257;-85
2023/04/23 15:14:31;;;;;;;;;;;;;;;;;;4935440;28;20448;-84
2023/04/23 15:19:26;;;;;;;0.20;0.10;;;;;;;;;;4977863;28;20427;-87
2023/04/23 15:28:38;;;;;;;0.20;0.10;;;;;;;;;;4908670;29;20071;-87
2023/04/23 15:31:17;;;;;;;0.20;0.10;;;;;;;;;;4907124;29;20043;-85
2023/04/23 15:34:15;;;;;;;0.22;0.22;;;;;;;;;;4911880;29;20525;-84
2023/04/23 15:36:41;;;;;;;0.20;0.10;;;;;;;;;;4933532;28;20054;-87
2023/04/23 15:39:33;;;;;;;0.20;0.10;;;;;;;;;;4952844;28;20082;-86
2023/04/23 15:41:59;;;;;;;0.20;0.03;;;;;;;;;;4953218;28;20039;-84
2023/04/23 15:44:34;;;;;;;0.20;0.00;;;;;;;;;;4936821;28;20914;-87
2023/04/23 15:50:21;;;;;;;0.20;0.10;;;;;;;;;;4898139;29;20055;-85
2023/04/23 15:52:57;;;;;;;0.20;0.10;;;;;;;;;;4912109;29;20056;-87
2023/04/23 15:55:32;;;;;;;0.20;0.10;;;;;;;;;;4918360;29;20049;-85
2023/04/23 15:58:18;;;;;;;0.40;0.20;;;;;;;;;;4914820;29;20047;-88
2023/04/23 16:03:49;;;;;;;0.20;0.10;;;;;;;;;;4951081;28;20586;-86
2023/04/23 16:06:27;;;;;;;0.20;0.10;;;;;;;;;;4954034;28;20062;-86
2023/04/23 16:09:02;;;;;;;0.20;0.10;;;;;;;;;;4950047;28;20047;-86
2023/04/23 16:11:50;;;;;;;0.30;0.20;;;;;;;;;;4938156;28;20518;-85
2023/04/23 16:14:51;;;;;;;0.20;0.10;;;;;;;;;;4961467;28;20073;-87
2023/04/23 16:17:30;;;;;;;0.20;0.10;;;;;;;;;;4951608;28;20634;-87
2023/04/23 16:20:46;;;;;;;0.20;0.10;;;;;;;;;;4930932;28;20355;-87
2023/04/23 16:23:13;;;;;;;0.20;0.10;;;;;;;;;;4935167;28;20082;-86
2023/04/23 16:25:40;;;;;;;0.20;0.10;;;;;;;;;;4971128;28;20039;-87
2023/04/23 16:28:55;;;;;;;;;;;;;;;;;;;;;